Terminal Aerodrome Forecast
Issued by NWS

Home | Current Version | Previous Version | Text Only | Print | Product List | Glossary On
Versions: 1 2 3 4 5 6 7 8 9 10 11 12 13 14 15 16 17 18 19 20 21
000
FTUS43 KICT 271135
TAFRSL
TAF
KRSL 271135Z 2712/2812 VRB05KT P6SM SCT080 BKN250
     FM271800 13012KT P6SM SCT120
     FM280400 13012KT P6SM VCTS SCT050CB OVC080=

USA.gov is the U.S. government's official web portal to all federal, state and local government web resources and services.